Time;durP1;ratioP1;P1;durP2;ratioP2;P2;SDS_P1;SDS_P2;PMS_P1;PMS_P2;Temp;Humidity;BMP_temperature;BMP_pressure;BME280_temperature;BME280_humidity;BME280_pressure;Samples;Min_cycle;Max_cycle;Signal;HPM_P1;HPM_P2
2023/10/26 00:00:42;;;;;;;0.10;0.10;;;;;;;-1.65;58.48;99937.25;5042022;28;20554;-77
2023/10/26 00:03:09;;;;;;;0.00;0.00;;;;;;;-1.64;58.87;99944.28;5025349;28;20458;-77
2023/10/26 00:05:35;;;;;;;0.10;0.10;;;;;;;-1.66;57.73;99922.19;5041885;28;20060;-77
2023/10/26 00:08:02;;;;;;;0.10;0.10;;;;;;;-1.70;58.14;99940.53;5046497;28;20084;-77
2023/10/26 00:10:28;;;;;;;0.10;0.10;;;;;;;-1.65;58.83;99939.94;5048124;28;20095;-77
2023/10/26 00:12:54;;;;;;;0.10;0.10;;;;;;;-1.66;58.76;99938.28;5049288;28;20132;-77
2023/10/26 00:15:20;;;;;;;0.10;0.10;;;;;;;-1.66;57.88;99917.66;5029743;28;20527;-78
2023/10/26 00:17:47;;;;;;;0.10;0.10;;;;;;;-1.72;57.03;99923.78;5008869;28;20291;-72
2023/10/26 00:20:14;;;;;;;0.10;0.10;;;;;;;-1.72;56.82;99924.63;5039685;28;20063;-72
2023/10/26 00:22:40;;;;;;;;;;;;;;;-1.72;56.86;99931.81;5006075;28;20053;-72
2023/10/26 00:25:07;;;;;;;0.30;0.15;;;;;;;-1.80;56.05;99931.97;5037712;28;19936;-71
2023/10/26 00:27:34;;;;;;;0.13;0.13;;;;;;;-1.82;56.62;99929.47;5042098;28;20141;-71
2023/10/26 00:30:00;;;;;;;0.10;0.10;;;;;;;-1.81;56.34;99927.63;5043841;28;20594;-72
2023/10/26 00:32:26;;;;;;;0.10;0.10;;;;;;;-1.79;57.31;99929.09;5024775;28;20053;-72
2023/10/26 00:34:52;;;;;;;0.00;0.00;;;;;;;-1.79;57.87;99912.16;5039000;28;20045;-72
2023/10/26 00:37:20;;;;;;;0.10;0.10;;;;;;;-1.75;56.43;99916.97;5042840;28;20045;-73
2023/10/26 00:39:46;;;;;;;0.10;0.10;;;;;;;-1.75;56.85;99916.97;5025147;28;20551;-72
2023/10/26 00:42:12;;;;;;;0.10;0.10;;;;;;;-1.69;57.89;99909.16;5039984;28;20056;-77
2023/10/26 00:44:39;;;;;;;0.10;0.10;;;;;;;-1.65;57.48;99910.44;5024361;28;20099;-77
2023/10/26 00:47:05;;;;;;;0.10;0.10;;;;;;;-1.63;57.58;99905.75;5039414;28;20099;-77
2023/10/26 00:49:32;;;;;;;0.10;0.10;;;;;;;-1.59;57.54;99915.88;5042773;28;20049;-77
2023/10/26 00:52:01;;;;;;;0.10;0.10;;;;;;;-1.61;56.71;99898.34;5042628;28;20068;-78
2023/10/26 00:54:31;;;;;;;0.10;0.10;;;;;;;-1.62;57.09;99913.56;5043395;28;20307;-77
2023/10/26 00:56:58;;;;;;;0.10;0.10;;;;;;;-1.60;57.73;99914.22;5022211;28;20056;-77
2023/10/26 00:59:29;;;;;;;0.10;0.10;;;;;;;-1.60;56.98;99903.47;5025733;28;20088;-78
2023/10/26 01:01:57;;;;;;;0.10;0.10;;;;;;;-1.52;56.91;99909.75;5039770;28;20394;-77
2023/10/26 01:04:24;;;;;;;0.08;0.08;;;;;;;-1.50;57.41;99910.38;5042242;28;20048;-77
2023/10/26 01:06:50;;;;;;;0.10;0.10;;;;;;;-1.55;56.61;99904.78;5039862;28;20049;-77
2023/10/26 01:09:16;;;;;;;0.10;0.10;;;;;;;-1.52;56.70;99907.88;5031705;28;20045;-77
2023/10/26 01:11:44;;;;;;;0.10;0.10;;;;;;;-1.53;57.18;99902.72;5041029;28;20088;-77
2023/10/26 01:14:11;;;;;;;0.00;0.00;;;;;;;-1.55;56.73;99920.88;5040670;28;20526;-77
2023/10/26 01:16:39;;;;;;;0.10;0.10;;;;;;;-1.63;57.50;99900.38;5044214;28;20474;-71
2023/10/26 01:19:06;;;;;;;0.10;0.10;;;;;;;-1.59;57.47;99904.34;5042446;28;20064;-72
2023/10/26 01:21:47;;;;;;;0.10;0.10;;;;;;;-1.74;56.77;99904.38;5046797;28;20132;-72
2023/10/26 01:24:13;;;;;;;0.10;0.10;;;;;;;-1.78;56.67;99892.38;5045276;28;20144;-71
2023/10/26 01:26:40;;;;;;;0.10;0.10;;;;;;;-1.79;56.78;99896.09;5042098;28;20052;-72
2023/10/26 01:29:06;;;;;;;0.10;0.10;;;;;;;-1.79;57.01;99899.63;5044616;28;20440;-72
2023/10/26 01:31:33;;;;;;;0.10;0.10;;;;;;;-1.81;57.36;99890.91;5030528;28;20071;-77
2023/10/26 01:33:59;;;;;;;0.10;0.10;;;;;;;-1.76;57.39;99887.66;5044649;28;20476;-77
2023/10/26 01:36:26;;;;;;;0.10;0.10;;;;;;;-1.75;56.57;99892.00;5045832;28;20053;-76
2023/10/26 01:38:57;;;;;;;0.10;0.10;;;;;;;-1.76;56.65;99888.50;5046452;28;20067;-77
2023/10/26 01:41:23;;;;;;;0.10;0.10;;;;;;;-1.80;57.08;99892.56;5047864;28;20045;-77
2023/10/26 01:43:49;;;;;;;0.10;0.10;;;;;;;-1.81;56.06;99887.41;5048353;28;20048;-77
2023/10/26 01:46:15;;;;;;;0.10;0.10;;;;;;;-1.88;56.13;99890.84;5046145;28;20534;-77
2023/10/26 01:48:42;;;;;;;0.08;0.08;;;;;;;-1.94;56.45;99883.56;5037537;28;20045;-77
2023/10/26 01:51:08;;;;;;;0.10;0.10;;;;;;;-1.94;57.18;99894.28;5049038;28;20037;-76
2023/10/26 01:53:34;;;;;;;0.00;0.00;;;;;;;-1.94;56.92;99901.50;5045297;28;20049;-71
2023/10/26 01:56:02;;;;;;;0.00;0.00;;;;;;;-1.96;56.79;99895.50;5046082;28;20313;-72
2023/10/26 01:58:28;;;;;;;0.10;0.10;;;;;;;-1.94;57.44;99898.84;5043641;28;20037;-72
2023/10/26 02:00:55;;;;;;;0.10;0.10;;;;;;;-1.95;57.24;99898.00;5042565;28;20518;-72
2023/10/26 02:03:21;;;;;;;0.10;0.10;;;;;;;-1.94;56.76;99896.97;5026345;28;20599;-72
2023/10/26 02:05:47;;;;;;;0.10;0.10;;;;;;;-2.03;56.80;99882.00;5044602;28;20132;-72
2023/10/26 02:08:13;;;;;;;0.10;0.10;;;;;;;-2.05;57.26;99894.78;5043837;28;20132;-72
2023/10/26 02:10:41;;;;;;;0.10;0.10;;;;;;;-2.04;57.33;99904.47;5043530;28;20068;-72
2023/10/26 02:13:10;;;;;;;0.10;0.10;;;;;;;-2.01;57.51;99901.44;5042048;28;20053;-72
2023/10/26 02:15:36;;;;;;;0.10;0.10;;;;;;;-2.00;57.38;99889.69;5050309;28;20045;-72
2023/10/26 02:18:03;;;;;;;0.10;0.10;;;;;;;-2.04;57.07;99896.44;5017556;28;20041;-72
2023/10/26 02:20:49;;;;;;;0.10;0.10;;;;;;;-2.06;57.49;99893.13;5010866;28;20053;-76
2023/10/26 02:23:16;;;;;;;0.00;0.00;;;;;;;-2.08;57.74;99879.94;5026958;28;20542;-76
2023/10/26 02:25:42;;;;;;;0.10;0.10;;;;;;;-2.09;57.69;99878.28;5042064;28;20127;-76
2023/10/26 02:28:15;;;;;;;0.10;0.10;;;;;;;-2.10;57.65;99890.00;5042203;28;20052;-77
2023/10/26 02:30:41;;;;;;;0.00;0.00;;;;;;;-2.12;57.60;99881.31;5042281;28;20049;-77
2023/10/26 02:33:07;;;;;;;0.10;0.10;;;;;;;-2.12;57.55;99893.91;5042202;28;20095;-77
2023/10/26 02:35:34;;;;;;;0.10;0.10;;;;;;;-2.11;57.87;99887.50;5044160;28;20044;-70
2023/10/26 02:38:00;;;;;;;0.10;0.10;;;;;;;-2.11;57.71;99885.66;5008556;28;20491;-72
2023/10/26 02:40:26;;;;;;;0.10;0.10;;;;;;;-2.09;57.54;99888.16;5025826;28;20108;-72
2023/10/26 02:42:52;;;;;;;0.00;0.00;;;;;;;-2.12;57.81;99893.91;5033894;28;20056;-71
2023/10/26 02:45:21;;;;;;;0.10;0.10;;;;;;;-2.10;58.42;99884.66;5042659;28;20048;-71
2023/10/26 02:47:47;;;;;;;0.10;0.10;;;;;;;-2.11;57.86;99877.59;5042927;28;20314;-71
2023/10/26 02:50:13;;;;;;;0.10;0.10;;;;;;;-2.16;58.38;99893.44;5040017;28;20132;-71
2023/10/26 02:52:40;;;;;;;0.08;0.08;;;;;;;-2.15;58.40;99881.69;5025105;28;20487;-72
2023/10/26 02:55:07;;;;;;;0.10;0.10;;;;;;;-2.15;58.21;99873.66;5023760;28;20079;-71
2023/10/26 02:57:34;;;;;;;0.10;0.10;;;;;;;-2.11;58.01;99882.16;5042895;28;20041;-71
2023/10/26 03:00:00;;;;;;;0.10;0.10;;;;;;;-2.14;57.90;99870.78;5025634;28;20299;-72
2023/10/26 03:02:28;;;;;;;0.10;0.10;;;;;;;-2.22;58.39;99886.16;5044872;28;20115;-72
2023/10/26 03:04:54;;;;;;;0.10;0.10;;;;;;;-2.22;58.47;99884.28;5044392;28;20052;-71
2023/10/26 03:07:23;;;;;;;0.10;0.10;;;;;;;-2.19;58.71;99885.78;5043754;28;20055;-71
2023/10/26 03:09:51;;;;;;;0.10;0.10;;;;;;;-2.14;59.45;99884.19;5026084;28;20075;-71
2023/10/26 03:12:19;;;;;;;0.10;0.10;;;;;;;-2.20;58.70;99876.91;5025995;28;20074;-71
2023/10/26 03:14:45;;;;;;;0.10;0.10;;;;;;;-2.17;58.98;99879.22;5044309;28;20083;-71
2023/10/26 03:17:16;;;;;;;0.10;0.10;;;;;;;-2.08;58.18;99884.44;5041236;28;20622;-71
2023/10/26 03:19:46;;;;;;;0.10;0.10;;;;;;;-2.13;58.32;99868.94;5043206;28;20049;-71
2023/10/26 03:22:12;;;;;;;0.10;0.10;;;;;;;-2.14;57.84;99867.28;5040894;28;20053;-71
2023/10/26 03:24:39;;;;;;;0.10;0.10;;;;;;;-2.23;57.78;99874.59;5025881;28;20049;-71
2023/10/26 03:27:05;;;;;;;0.10;0.10;;;;;;;-2.24;59.33;99862.22;5042149;28;20045;-70
2023/10/26 03:29:31;;;;;;;0.10;0.10;;;;;;;-2.08;58.84;99873.72;5040683;28;20076;-72
2023/10/26 03:31:58;;;;;;;0.10;0.10;;;;;;;-2.11;57.93;99858.84;5024234;28;20049;-71
2023/10/26 03:34:25;;;;;;;0.10;0.10;;;;;;;-2.15;59.03;99855.75;5039967;28;20044;-71
2023/10/26 03:36:52;;;;;;;0.10;0.10;;;;;;;-2.19;58.94;99853.63;5039562;28;20535;-72
2023/10/26 03:39:18;;;;;;;;;;;;;;;-2.11;59.52;99866.88;5043055;28;20052;-71
2023/10/26 03:41:44;;;;;;;0.10;0.10;;;;;;;-2.06;60.16;99860.97;5042582;28;19928;-71
2023/10/26 03:44:11;;;;;;;0.10;0.10;;;;;;;-2.05;58.95;99859.94;5042805;28;20103;-71
2023/10/26 03:46:37;;;;;;;0.10;0.10;;;;;;;-2.04;58.92;99856.25;5041998;28;20140;-71
2023/10/26 03:49:03;;;;;;;0.10;0.10;;;;;;;-2.10;58.86;99847.13;5040021;28;20044;-71
2023/10/26 03:51:30;;;;;;;0.10;0.10;;;;;;;-2.07;59.65;99848.59;5044455;28;20076;-71
2023/10/26 03:53:57;;;;;;;0.10;0.10;;;;;;;-2.03;59.79;99857.91;5042967;28;20503;-71
2023/10/26 03:56:23;;;;;;;0.00;0.00;;;;;;;-2.01;60.46;99855.88;5041791;28;20095;-72
2023/10/26 03:58:50;;;;;;;0.05;0.05;;;;;;;-2.05;59.88;99850.06;5039722;28;20049;-71
2023/10/26 04:01:16;;;;;;;0.10;0.10;;;;;;;-2.02;59.63;99855.03;5056003;28;20079;-72
2023/10/26 04:03:42;;;;;;;0.10;0.10;;;;;;;-2.05;59.46;99863.47;5021881;28;20087;-71
2023/10/26 04:06:09;;;;;;;0.10;0.10;;;;;;;-2.08;58.96;99865.69;5017719;28;20052;-70
2023/10/26 04:08:37;;;;;;;0.10;0.10;;;;;;;-2.13;59.31;99860.91;5020550;28;20530;-71
2023/10/26 04:11:05;;;;;;;0.10;0.10;;;;;;;-2.14;59.27;99856.56;5004547;28;20054;-71
2023/10/26 04:13:30;;;;;;;;;;;;;;;-2.17;59.18;99863.16;5036695;28;20041;-71
2023/10/26 04:15:59;;;;;;;0.00;0.00;;;;;;;-2.21;59.37;99861.84;5040345;28;19971;-73
2023/10/26 04:18:26;;;;;;;0.00;0.00;;;;;;;-2.20;59.08;99855.47;5037490;28;20077;-71
2023/10/26 04:20:52;;;;;;;0.10;0.10;;;;;;;-2.19;59.02;99865.16;5021551;28;20041;-71
2023/10/26 04:23:18;;;;;;;0.10;0.10;;;;;;;-2.18;59.05;99861.50;5026662;28;20057;-72
2023/10/26 04:25:45;;;;;;;0.10;0.10;;;;;;;-2.16;59.08;99856.75;5041383;28;20040;-71
2023/10/26 04:28:13;;;;;;;0.10;0.10;;;;;;;-2.20;58.87;99865.38;5041243;28;20077;-71
2023/10/26 04:30:39;;;;;;;0.10;0.10;;;;;;;-2.32;57.93;99863.16;5040450;28;20049;-71
2023/10/26 04:33:05;;;;;;;0.00;0.00;;;;;;;-2.38;58.57;99850.53;5035676;28;20195;-71
2023/10/26 04:35:31;;;;;;;0.00;0.00;;;;;;;-2.46;58.72;99843.44;5036184;28;20114;-71
2023/10/26 04:37:57;;;;;;;0.08;0.08;;;;;;;-2.53;58.42;99855.09;5040279;28;20091;-77
2023/10/26 04:40:24;;;;;;;0.10;0.10;;;;;;;-2.57;58.46;99849.28;5026030;28;20049;-72
2023/10/26 04:42:50;;;;;;;0.10;0.10;;;;;;;-2.59;58.55;99854.00;5035399;28;20649;-72
2023/10/26 04:45:18;;;;;;;0.10;0.10;;;;;;;-2.62;58.27;99857.06;5027385;28;20136;-72
2023/10/26 04:47:44;;;;;;;0.10;0.10;;;;;;;-2.61;57.98;99856.03;5029327;28;20045;-73
2023/10/26 04:50:11;;;;;;;0.10;0.10;;;;;;;-2.61;58.53;99848.00;5029630;28;20053;-72
2023/10/26 04:52:38;;;;;;;0.10;0.10;;;;;;;-2.59;58.67;99857.50;5030095;28;20133;-72
2023/10/26 04:55:05;;;;;;;0.10;0.10;;;;;;;-2.51;59.44;99850.38;5034550;28;20057;-72
2023/10/26 04:57:31;;;;;;;0.10;0.10;;;;;;;-2.49;58.43;99851.88;5042413;28;20139;-76
2023/10/26 04:59:57;;;;;;;0.10;0.10;;;;;;;-2.43;57.46;99851.09;5047009;28;20091;-76
2023/10/26 05:02:24;;;;;;;0.10;0.10;;;;;;;-2.42;57.10;99850.09;4689577;28;10000121;-72
2023/10/26 05:04:51;;;;;;;0.10;0.10;;;;;;;-2.36;57.69;99847.66;5022597;28;20419;-72
2023/10/26 05:07:17;;;;;;;0.10;0.10;;;;;;;-2.38;58.02;99845.19;5023658;28;20720;-72
2023/10/26 05:09:43;;;;;;;0.10;0.10;;;;;;;-2.41;57.87;99856.28;5027374;28;20037;-72
2023/10/26 05:12:10;;;;;;;0.00;0.00;;;;;;;-2.43;57.49;99853.78;5022328;28;20136;-72
2023/10/26 05:14:36;;;;;;;0.10;0.10;;;;;;;-2.47;58.39;99838.28;5035582;28;20556;-72
2023/10/26 05:17:03;;;;;;;0.10;0.10;;;;;;;-2.44;58.00;99836.06;5038532;28;20055;-73
2023/10/26 05:19:32;;;;;;;0.10;0.10;;;;;;;-2.42;58.48;99841.19;5043661;28;20053;-73
2023/10/26 05:21:59;;;;;;;0.10;0.10;;;;;;;-2.42;57.99;99835.84;5045549;28;20049;-74
2023/10/26 05:24:26;;;;;;;0.10;0.10;;;;;;;-2.42;58.21;99833.16;5028902;28;20057;-74
2023/10/26 05:26:52;;;;;;;0.10;0.10;;;;;;;-2.47;57.01;99833.75;5042494;28;20048;-73
2023/10/26 05:29:19;;;;;;;0.10;0.10;;;;;;;-2.53;56.93;99828.31;5039035;28;20428;-73
2023/10/26 05:31:45;;;;;;;0.10;0.10;;;;;;;-2.52;56.98;99833.47;5030726;28;20090;-73
2023/10/26 05:34:11;;;;;;;0.10;0.10;;;;;;;-2.49;57.72;99841.16;5024577;28;20052;-73
2023/10/26 05:36:39;;;;;;;0.10;0.10;;;;;;;-2.51;57.10;99834.31;5024239;28;20153;-73
2023/10/26 05:39:06;;;;;;;0.10;0.10;;;;;;;-2.53;57.56;99831.81;5010514;28;20428;-73
2023/10/26 05:41:35;;;;;;;0.10;0.10;;;;;;;-2.53;58.09;99826.47;5009323;28;20499;-73
2023/10/26 05:44:01;;;;;;;0.00;0.00;;;;;;;-2.47;58.44;99830.22;5014103;28;20062;-73
2023/10/26 05:46:28;;;;;;;0.10;0.10;;;;;;;-2.45;57.76;99831.72;5031279;28;20041;-73
2023/10/26 05:48:54;;;;;;;0.10;0.10;;;;;;;-2.53;57.67;99821.09;5037716;28;20041;-73
2023/10/26 05:51:21;;;;;;;0.10;0.10;;;;;;;-2.50;57.48;99826.06;5044251;28;20126;-74
2023/10/26 05:53:49;;;;;;;0.10;0.10;;;;;;;-2.40;57.52;99822.28;5043733;28;20060;-75
2023/10/26 05:56:15;;;;;;;0.10;0.10;;;;;;;-2.46;57.07;99823.84;5024974;28;20049;-75
2023/10/26 05:58:43;;;;;;;0.15;0.15;;;;;;;-2.50;58.30;99818.03;5006103;28;20041;-75
2023/10/26 06:01:09;;;;;;;0.10;0.10;;;;;;;-2.49;57.36;99825.09;5022128;28;20233;-75
2023/10/26 06:03:36;;;;;;;0.10;0.10;;;;;;;-2.46;57.35;99827.38;5041534;28;20069;-76
2023/10/26 06:06:03;;;;;;;0.10;0.10;;;;;;;-2.46;57.88;99823.84;5025961;28;20045;-76
2023/10/26 06:08:30;;;;;;;0.10;0.10;;;;;;;-2.41;57.40;99821.47;5026570;28;20045;-76
2023/10/26 06:10:58;;;;;;;0.10;0.10;;;;;;;-2.39;57.82;99822.09;5034766;28;20083;-76
2023/10/26 06:13:24;;;;;;;0.10;0.10;;;;;;;-2.34;57.29;99821.50;5035796;28;20049;-75
2023/10/26 06:15:50;;;;;;;0.10;0.10;;;;;;;-2.31;56.76;99805.91;5041898;28;20381;-74
2023/10/26 06:18:17;;;;;;;0.10;0.10;;;;;;;-2.28;57.14;99804.69;5044387;28;20057;-75
2023/10/26 06:20:55;;;;;;;0.10;0.10;;;;;;;-2.19;56.68;99826.84;5045816;28;20569;-76
2023/10/26 06:23:21;;;;;;;0.10;0.10;;;;;;;-2.19;56.83;99824.16;5030619;28;20405;-75
2023/10/26 06:25:47;;;;;;;0.10;0.10;;;;;;;-2.16;56.93;99824.59;5034242;28;20524;-73
2023/10/26 06:28:17;;;;;;;0.00;0.00;;;;;;;-2.14;55.95;99827.09;5045049;28;20122;-74
2023/10/26 06:30:43;;;;;;;0.10;0.10;;;;;;;-2.13;56.67;99828.75;5027994;28;20389;-75
2023/10/26 06:33:12;;;;;;;0.10;0.10;;;;;;;-2.16;56.36;99827.28;5042986;28;20060;-75
2023/10/26 06:35:39;;;;;;;0.10;0.10;;;;;;;-2.17;55.97;99822.09;5041522;28;20057;-76
2023/10/26 06:38:05;;;;;;;0.10;0.10;;;;;;;-2.25;56.08;99825.75;5029252;28;20599;-74
2023/10/26 06:40:31;;;;;;;0.10;0.10;;;;;;;-2.25;56.05;99822.25;5043036;28;20171;-75
2023/10/26 06:42:57;;;;;;;0.10;0.10;;;;;;;-2.20;56.21;99822.50;5045055;28;20396;-76
2023/10/26 06:45:25;;;;;;;0.30;0.20;;;;;;;-2.14;56.30;99824.41;5044410;28;20435;-75
2023/10/26 06:47:51;;;;;;;0.10;0.10;;;;;;;-2.08;55.96;99829.00;5043588;28;20463;-75
2023/10/26 06:50:18;;;;;;;0.10;0.10;;;;;;;-2.04;56.25;99808.84;5043442;28;20049;-74
2023/10/26 06:52:44;;;;;;;0.10;0.10;;;;;;;-2.02;55.76;99814.84;5029355;28;20214;-75
2023/10/26 06:55:17;;;;;;;0.10;0.10;;;;;;;-2.03;56.04;99812.34;5015069;28;20638;-75
2023/10/26 06:57:43;;;;;;;0.08;0.08;;;;;;;-2.00;55.91;99810.13;5028007;28;20471;-75
2023/10/26 07:00:11;;;;;;;0.10;0.10;;;;;;;-1.95;56.03;99816.75;5036978;28;20056;-75
2023/10/26 07:02:40;;;;;;;0.10;0.10;;;;;;;-1.87;56.23;99809.44;5024519;28;20041;-75
2023/10/26 07:05:06;;;;;;;0.10;0.10;;;;;;;-1.92;55.67;99809.16;5024294;28;20064;-75
2023/10/26 07:07:33;;;;;;;0.10;0.10;;;;;;;-1.95;55.96;99820.25;5037757;28;20049;-75
2023/10/26 07:09:59;;;;;;;0.10;0.10;;;;;;;-1.93;55.80;99809.38;5041778;28;20045;-75
2023/10/26 07:12:30;;;;;;;0.10;0.10;;;;;;;-1.86;55.69;99815.59;5036356;28;20517;-74
2023/10/26 07:14:59;;;;;;;0.10;0.10;;;;;;;-1.87;54.46;99811.25;4991355;28;20420;-75
2023/10/26 07:17:25;;;;;;;0.10;0.10;;;;;;;-1.87;53.61;99824.66;5033327;28;20044;-75
2023/10/26 07:19:53;;;;;;;0.10;0.10;;;;;;;-1.88;53.54;99801.56;5042187;28;20076;-76
2023/10/26 07:22:21;;;;;;;0.13;0.13;;;;;;;-1.86;53.44;99808.41;5046390;28;20049;-74
2023/10/26 07:24:48;;;;;;;0.10;0.10;;;;;;;-1.71;53.49;99810.19;5028176;28;20435;-75
2023/10/26 07:27:14;;;;;;;0.10;0.10;;;;;;;-1.59;53.38;99815.81;5040788;28;20056;-75
2023/10/26 07:29:41;;;;;;;0.28;0.20;;;;;;;-1.50;53.16;99813.84;5019785;28;20041;-75
2023/10/26 07:32:07;;;;;;;0.10;0.10;;;;;;;-1.44;52.38;99792.41;5037747;28;20045;-75
2023/10/26 07:34:33;;;;;;;0.10;0.10;;;;;;;-1.41;52.68;99793.88;5038400;28;20051;-76
2023/10/26 07:37:01;;;;;;;0.10;0.10;;;;;;;-1.26;52.81;99790.25;5038277;28;20754;-74
2023/10/26 07:39:27;;;;;;;;;;;;;;;-1.15;52.26;99805.81;5038603;28;20094;-75
2023/10/26 07:41:53;;;;;;;0.10;0.10;;;;;;;-1.21;52.14;99801.22;5041447;28;19968;-76
2023/10/26 07:44:20;;;;;;;0.10;0.10;;;;;;;-1.12;52.05;99805.41;5042969;28;20418;-75
2023/10/26 07:46:46;;;;;;;0.10;0.10;;;;;;;-0.91;51.99;99793.75;5042858;28;20037;-75
2023/10/26 07:49:12;;;;;;;0.10;0.10;;;;;;;-0.84;51.74;99788.41;5044008;28;20703;-76
2023/10/26 07:51:38;;;;;;;0.10;0.10;;;;;;;-0.83;51.54;99775.81;5041044;28;20088;-75
2023/10/26 07:54:06;;;;;;;0.10;0.10;;;;;;;-0.74;51.32;99791.56;5025739;28;20060;-75
2023/10/26 07:56:32;;;;;;;0.10;0.10;;;;;;;-0.77;51.05;99778.53;5043394;28;20045;-75
2023/10/26 07:58:59;;;;;;;0.10;0.10;;;;;;;-0.80;51.31;99786.97;5042479;28;20420;-75
2023/10/26 08:01:25;;;;;;;0.10;0.10;;;;;;;-0.86;51.58;99783.25;5041511;28;20493;-77
2023/10/26 08:03:51;;;;;;;0.10;0.10;;;;;;;-0.78;51.45;99782.25;5039224;28;20635;-75
2023/10/26 08:06:17;;;;;;;0.10;0.10;;;;;;;-0.64;51.23;99782.28;5013416;28;20045;-75
2023/10/26 08:08:45;;;;;;;0.00;0.00;;;;;;;-0.65;51.10;99772.56;5039044;28;20076;-75
2023/10/26 08:11:14;;;;;;;0.10;0.10;;;;;;;-0.64;50.79;99776.91;5042036;28;20045;-75
2023/10/26 08:13:40;;;;;;;0.13;0.13;;;;;;;-0.65;50.79;99778.78;5042431;28;20056;-75
2023/10/26 08:16:07;;;;;;;0.10;0.10;;;;;;;-0.57;51.11;99780.47;5042756;28;20388;-75
2023/10/26 08:18:33;;;;;;;0.10;0.10;;;;;;;-0.48;50.72;99776.53;5042996;28;20492;-75
2023/10/26 08:21:02;;;;;;;0.10;0.10;;;;;;;-0.33;50.58;99778.22;5043281;28;20065;-75
2023/10/26 08:23:29;;;;;;;0.20;0.20;;;;;;;0.68;49.35;99786.31;5043053;28;20053;-75
2023/10/26 08:25:56;;;;;;;0.20;0.20;;;;;;;1.67;47.14;99778.09;5023258;28;20140;-75
2023/10/26 08:28:24;;;;;;;4.80;0.30;;;;;;;1.81;45.66;99778.81;5037509;28;20059;-75
2023/10/26 08:30:52;;;;;;;;;;;;;;;1.69;45.91;99778.69;5047047;28;20048;-75
2023/10/26 08:33:18;;;;;;;0.13;0.13;;;;;;;1.71;45.66;99770.38;5030112;28;19928;-75
2023/10/26 08:35:49;;;;;;;0.10;0.10;;;;;;;1.62;45.70;99780.56;5044280;28;20225;-76
2023/10/26 08:38:15;;;;;;;0.10;0.10;;;;;;;1.48;45.91;99769.06;5046982;28;20459;-75
2023/10/26 08:40:49;;;;;;;0.10;0.10;;;;;;;1.59;45.74;99769.44;5048976;28;20071;-75
2023/10/26 08:43:16;;;;;;;0.20;0.20;;;;;;;1.53;45.57;99771.91;5045184;28;20053;-75
2023/10/26 08:45:53;;;;;;;0.10;0.10;;;;;;;1.14;45.85;99781.84;5047402;28;20049;-73
2023/10/26 08:48:19;;;;;;;0.10;0.10;;;;;;;0.54;47.03;99755.91;5043979;28;20103;-73
2023/10/26 08:50:46;;;;;;;0.10;0.10;;;;;;;0.42;47.46;99772.69;5011517;28;20512;-73
2023/10/26 08:53:13;;;;;;;0.10;0.10;;;;;;;0.22;47.71;99775.38;5048544;28;20056;-73
2023/10/26 08:55:40;;;;;;;0.10;0.10;;;;;;;0.04;48.35;99765.25;5037541;28;20049;-73
2023/10/26 08:58:07;;;;;;;0.10;0.10;;;;;;;-0.09;48.83;99765.25;5039319;28;20055;-73
2023/10/26 09:00:36;;;;;;;0.10;0.10;;;;;;;-0.14;49.33;99768.56;5027030;28;20055;-73
2023/10/26 09:03:04;;;;;;;0.10;0.10;;;;;;;-0.05;49.01;99769.19;5048624;28;20045;-73
2023/10/26 09:05:31;;;;;;;0.10;0.10;;;;;;;-0.07;49.13;99771.25;5027825;28;20144;-74
2023/10/26 09:07:57;;;;;;;0.10;0.10;;;;;;;-0.18;49.26;99754.69;5040772;28;20059;-74
2023/10/26 09:10:29;;;;;;;0.10;0.10;;;;;;;-0.33;49.53;99765.63;5047790;28;20045;-75
2023/10/26 09:13:00;;;;;;;0.20;0.20;;;;;;;-0.34;49.75;99757.75;5060488;28;20049;-75
2023/10/26 09:15:26;;;;;;;0.20;0.20;;;;;;;0.02;49.42;99755.75;5043499;28;20037;-76
2023/10/26 09:17:57;;;;;;;0.10;0.10;;;;;;;0.45;48.48;99758.00;5046377;28;20053;-75
2023/10/26 09:20:26;;;;;;;0.10;0.10;;;;;;;0.87;47.85;99748.81;5045269;28;20041;-76
2023/10/26 09:22:52;;;;;;;0.20;0.20;;;;;;;1.15;47.32;99751.19;5042051;28;20041;-76
2023/10/26 09:25:19;;;;;;;0.10;0.10;;;;;;;1.39;46.99;99751.47;5025899;28;20152;-75
2023/10/26 09:27:46;;;;;;;0.10;0.10;;;;;;;1.67;46.48;99742.19;5044827;28;20535;-75
2023/10/26 09:30:24;;;;;;;0.10;0.10;;;;;;;1.71;46.38;99740.72;5044273;28;20547;-76
2023/10/26 09:32:50;;;;;;;0.20;0.20;;;;;;;1.78;45.58;99732.56;5039543;28;20045;-75
2023/10/26 09:35:26;;;;;;;0.10;0.10;;;;;;;1.48;45.93;99720.53;5040860;28;20033;-76
2023/10/26 09:37:53;;;;;;;0.10;0.10;;;;;;;1.44;46.24;99721.19;5047721;28;20139;-76
2023/10/26 09:40:19;;;;;;;0.20;0.20;;;;;;;1.52;46.21;99732.53;5026709;28;20153;-75
2023/10/26 09:42:47;;;;;;;0.10;0.10;;;;;;;1.80;45.35;99735.91;5042525;28;20652;-75
2023/10/26 09:45:13;;;;;;;0.10;0.10;;;;;;;2.01;45.17;99728.47;5041997;28;20511;-75
2023/10/26 09:47:40;;;;;;;0.32;0.20;;;;;;;2.32;44.52;99724.06;5040576;28;20041;-75
2023/10/26 09:50:08;;;;;;;0.20;0.20;;;;;;;2.51;43.65;99724.94;5042510;28;20389;-75
2023/10/26 09:52:38;;;;;;;0.10;0.10;;;;;;;2.57;43.34;99724.03;5042607;28;20083;-76
2023/10/26 09:55:07;;;;;;;0.20;0.20;;;;;;;2.60;43.22;99723.56;5024777;28;20515;-73
2023/10/26 09:57:35;;;;;;;0.20;0.20;;;;;;;2.97;42.65;99714.63;5034930;28;20136;-73
2023/10/26 10:00:10;;;;;;;0.20;0.20;;;;;;;2.68;42.27;99723.28;5043726;28;20048;-73
2023/10/26 10:02:39;;;;;;;0.10;0.10;;;;;;;2.03;43.65;99721.00;5044025;28;20049;-73
2023/10/26 10:05:06;;;;;;;0.10;0.10;;;;;;;1.77;44.11;99714.75;5023882;28;20040;-73
2023/10/26 10:07:44;;;;;;;0.10;0.10;;;;;;;1.58;44.65;99708.47;5043838;28;20044;-73
2023/10/26 10:10:17;;;;;;;0.20;0.20;;;;;;;1.72;44.58;99704.66;5040289;28;20549;-73
2023/10/26 10:12:51;;;;;;;0.20;0.20;;;;;;;2.24;43.99;99712.50;5009901;28;20607;-73
2023/10/26 10:15:32;;;;;;;0.20;0.20;;;;;;;2.28;43.59;99698.59;5038456;28;20134;-73
2023/10/26 10:18:03;;;;;;;0.10;0.10;;;;;;;2.12;44.00;99706.19;5047611;28;20133;-76
2023/10/26 10:20:31;;;;;;;0.10;0.10;;;;;;;2.26;43.87;99702.31;5044056;28;20471;-76
2023/10/26 10:23:00;;;;;;;0.20;0.20;;;;;;;2.26;43.57;99682.59;5026808;28;20051;-75
2023/10/26 10:25:58;;;;;;;0.10;0.10;;;;;;;2.59;42.42;99676.03;5026011;28;20053;-75
2023/10/26 10:28:39;;;;;;;0.10;0.10;;;;;;;2.80;42.25;99679.31;5008427;28;20055;-75
2023/10/26 10:31:05;;;;;;;0.20;0.20;;;;;;;2.79;42.38;99673.09;5042568;28;20067;-75
2023/10/26 10:33:32;;;;;;;0.20;0.20;;;;;;;2.74;42.45;99696.41;5015323;28;20067;-75
2023/10/26 10:36:00;;;;;;;0.20;0.20;;;;;;;2.50;42.82;99686.28;5038715;28;20041;-76
2023/10/26 10:38:28;;;;;;;0.10;0.10;;;;;;;2.32;43.18;99692.50;5040909;28;20070;-76
2023/10/26 10:41:07;;;;;;;;;;;;;;;2.30;43.44;99680.28;5045096;28;20052;-76
2023/10/26 10:43:35;;;;;;;0.20;0.20;;;;;;;2.33;43.58;99677.13;5046715;28;19936;-76
2023/10/26 10:46:12;;;;;;;0.20;0.20;;;;;;;2.79;43.01;99674.97;5039422;28;20175;-76
2023/10/26 10:49:03;;;;;;;0.20;0.20;;;;;;;2.96;42.19;99659.78;5042618;28;20554;-77
2023/10/26 10:51:31;;;;;;;0.10;0.10;;;;;;;2.89;42.27;99674.41;5012398;28;20114;-76
2023/10/26 10:54:00;;;;;;;0.10;0.10;;;;;;;2.76;42.60;99678.13;5040009;28;20415;-77
2023/10/26 10:56:28;;;;;;;0.10;0.10;;;;;;;2.48;42.74;99685.69;5041765;28;20072;-77
2023/10/26 10:58:56;;;;;;;0.10;0.10;;;;;;;1.87;43.39;99684.59;5044699;28;20424;-76
2023/10/26 11:01:22;;;;;;;;;;;;;;;1.45;44.56;99683.25;5048623;28;20045;-76
2023/10/26 11:03:48;;;;;;;0.10;0.10;;;;;;;1.20;44.97;99675.94;5045354;28;20031;-76
2023/10/26 11:06:16;;;;;;;0.10;0.10;;;;;;;1.09;45.55;99664.00;5042183;28;20090;-76
2023/10/26 11:08:43;;;;;;;0.10;0.10;;;;;;;1.02;45.99;99663.22;5044619;28;20176;-76
2023/10/26 11:11:26;;;;;;;0.20;0.20;;;;;;;0.99;46.09;99659.06;5045089;28;20095;-77
2023/10/26 11:14:12;;;;;;;0.20;0.20;;;;;;;0.99;46.09;99653.69;5008100;28;20037;-76
2023/10/26 11:16:41;;;;;;;0.10;0.10;;;;;;;0.94;46.04;99649.97;5039793;28;20122;-76
2023/10/26 11:19:07;;;;;;;0.10;0.10;;;;;;;0.99;45.85;99644.75;5042441;28;20053;-75
2023/10/26 11:21:34;;;;;;;0.10;0.10;;;;;;;1.18;45.82;99652.97;5046748;28;20127;-76
2023/10/26 11:24:01;;;;;;;0.10;0.10;;;;;;;1.34;45.24;99649.75;5028526;28;20052;-77
2023/10/26 11:26:29;;;;;;;0.10;0.10;;;;;;;1.33;45.57;99652.66;5045338;28;20135;-76
2023/10/26 11:28:56;;;;;;;0.57;0.20;;;;;;;1.26;45.76;99645.47;5049517;28;20272;-76
2023/10/26 11:31:39;;;;;;;0.10;0.10;;;;;;;1.30;45.97;99647.72;5048327;28;20045;-77
2023/10/26 11:34:06;;;;;;;0.10;0.10;;;;;;;1.38;45.75;99650.13;5044910;28;20045;-77
2023/10/26 11:36:34;;;;;;;0.10;0.10;;;;;;;1.39;45.78;99638.31;5041095;28;20187;-76
2023/10/26 11:39:01;;;;;;;0.20;0.20;;;;;;;1.48;45.60;99642.41;5028046;28;20114;-73